Zim Panama — VSWW5 — position and weather

sailwx.info

Track history (hours):
 
Tides and Currents Weather Stations Pressure Air Temp Water Temp Dewpoint Dewpoint Depression Visibility Wind Speed Wind Dir Waves Ship Positions

Zim Panama

Last reported at 2014-Jul-23 01:24 UTC. Time now 2014-Jul-23 20:10 UTC.
Position N 38°44' W 011°52'.

Length 294.12 m; beam 32.2 m; draft 9.45 m.

Type: Ship (hazmat cat C). MMSI: 235474000.

Date/timePositionNaut miles runAvg speedWind from/ knotsBaromVisibWave heightAir tempDewpointWater temp
2014-Jul-23 01:24N 38°44' W 011°52'3818.5
2014-Jul-22 23:20N 38°31' W 011°06'1518.8
2014-Jul-22 22:32N 38°27' W 010°48'1918.6
2014-Jul-22 21:29N 38°21' W 010°24'1718.1
2014-Jul-22 20:33N 38°15' W 010°04'1817.9
2014-Jul-22 19:33N 38°09' W 009°42'1818.0
2014-Jul-22 18:33N 38°03' W 009°21'1818.0
2014-Jul-22 17:33N 37°56' W 008°60'7 7.1
2014-Jul-22 16:33N 37°56' W 008°51'0 0.0
2014-Jul-22 15:33N 37°56' W 008°51'0 0.0
2014-Jul-22 14:33N 37°56' W 008°51'0 0.0
2014-Jul-22 13:33N 37°56' W 008°51'0 0.0
2014-Jul-22 12:33N 37°56' W 008°51'0 0.0
2014-Jul-22 11:33N 37°56' W 008°51'0 0.0
2014-Jul-22 10:33N 37°56' W 008°51'0 0.0
2014-Jul-22 09:33N 37°56' W 008°51'0 0.0
2014-Jul-22 08:33N 37°56' W 008°51'0 0.0
2014-Jul-22 07:33N 37°56' W 008°51'0 0.0
2014-Jul-22 06:33N 37°56' W 008°51'0 0.0
2014-Jul-22 05:33N 37°56' W 008°51'0 0.4
2014-Jul-22 04:33N 37°56' W 008°51'7 6.6
2014-Jul-22 03:33N 37°49' W 008°53'1616.2
2014-Jul-22 02:33N 37°34' W 009°01'2020.3
2014-Jul-22 01:33N 37°16' W 009°11'2019.5
2014-Jul-22 00:33N 36°58' W 009°20'2019.5
2014-Jul-21 23:33N 36°43' W 009°04'2120.7
2014-Jul-21 22:34N 36°37' W 008°39'2120.8
2014-Jul-21 21:34N 36°31' W 008°15'2520.9
2014-Jul-21 20:23N 36°22' W 007°46'221.1
2014-Jul-21 20:17N 36°22' W 007°44'1520.7
2014-Jul-21 19:34N 36°17' W 007°26'33419.4
2014-Jul-21 02:21N 37°31' W 000°39'1921.0
2014-Jul-21 01:28N 37°46' W 000°25'2121.4
2014-Jul-21 00:28N 38°04' W 000°10'5117.5
2014-Jul-20 21:33N 38°50' E 000°18'2120.6
2014-Jul-20 20:32N 39°07' E 000°02'2219.7
2014-Jul-20 19:25N 39°24' W 000°15'4 4.3
2014-Jul-20 18:31N 39°26' W 000°19'0 0.0
2014-Jul-20 17:31N 39°26' W 000°19'0 0.0
2014-Jul-20 16:31N 39°26' W 000°19'0 0.0
2014-Jul-20 15:25N 39°26' W 000°19'0 0.0
2014-Jul-20 14:31N 39°26' W 000°19'0 0.0
2014-Jul-20 13:25N 39°26' W 000°19'0 0.0
2014-Jul-20 12:31N 39°26' W 000°19'0 0.0
2014-Jul-20 11:34N 39°26' W 000°19'0 0.0
2014-Jul-20 10:33N 39°26' W 000°19'0 0.0
2014-Jul-20 09:33N 39°26' W 000°19'0 0.0
2014-Jul-20 08:33N 39°26' W 000°19'0 0.0
2014-Jul-20 07:33N 39°26' W 000°19'0 0.0
2014-Jul-20 06:33N 39°26' W 000°19'0 0.3
2014-Jul-20 05:31N 39°26' W 000°20'0 0.0
2014-Jul-20 04:31N 39°26' W 000°20'0 0.0
2014-Jul-20 03:25N 39°26' W 000°20'0 0.0
2014-Jul-20 02:31N 39°26' W 000°20'0 0.0
2014-Jul-20 01:31N 39°26' W 000°20'0 0.0
2014-Jul-20 00:25N 39°26' W 000°20'0 0.0
2014-Jul-19 22:07N 39°26' W 000°20'0 0.0
2014-Jul-19 21:31N 39°26' W 000°20'0 0.0
2014-Jul-19 20:31N 39°26' W 000°20'0 0.0
2014-Jul-19 19:22N 39°26' W 000°20'0 0.0
2014-Jul-19 18:25N 39°26' W 000°20'0 0.0
2014-Jul-19 17:31N 39°26' W 000°20'0 0.0
2014-Jul-19 16:31N 39°26' W 000°20'0 0.0
2014-Jul-19 15:31N 39°26' W 000°20'0 0.0
2014-Jul-19 14:31N 39°26' W 000°20'0 0.0
2014-Jul-19 13:31N 39°26' W 000°20'0 0.0
2014-Jul-19 12:31N 39°26' W 000°20'0 0.0
2014-Jul-19 11:31N 39°26' W 000°20'2 1.7
2014-Jul-19 10:33N 39°25' W 000°18'8 6.6
2014-Jul-19 09:19N 39°25' W 000°07'1012.5
2014-Jul-19 08:33N 39°25' E 000°05'4713.7
2014-Jul-19 05:09N 39°21' E 001°06'1014.0
2014-Jul-19 04:26N 39°21' E 001°19'1314.3
2014-Jul-19 03:33N 39°18' E 001°35'1414.5
2014-Jul-19 02:33N 39°13' E 001°52'1414.3
2014-Jul-19 01:33N 39°09' E 002°10'1414.1
2014-Jul-19 00:33N 39°02' E 002°25'1414.4
2014-Jul-18 23:33N 38°58' E 002°43'1514.5
2014-Jul-18 22:33N 38°54' E 003°01'1414.4
2014-Jul-18 21:33N 38°51' E 003°19'1414.5
2014-Jul-18 20:33N 38°48' E 003°37'1514.4
2014-Jul-18 19:33N 38°45' E 003°56'1414.4
2014-Jul-18 18:33N 38°42' E 004°13'1414.4
2014-Jul-18 17:33N 38°38' E 004°31'1514.5
2014-Jul-18 16:33N 38°35' E 004°49'1414.4
2014-Jul-18 15:33N 38°32' E 005°07'1514.5
2014-Jul-18 14:33N 38°29' E 005°26'1514.6
2014-Jul-18 13:33N 38°26' E 005°44'1514.8
2014-Jul-18 12:33N 38°22' E 006°02'7915.1
2014-Jul-18 07:20N 38°05' E 007°40'17514.5
2014-Jul-17 19:15N 37°26' E 011°16'10414.5
2014-Jul-17 12:04N 36°38' E 013°12'714.2
2014-Jul-17 11:34N 36°35' E 013°20'2014.2
2014-Jul-17 10:08N 36°26' E 013°43'814.5
2014-Jul-17 09:34N 36°23' E 013°53'1414.4
2014-Jul-17 08:34N 36°18' E 014°09'1514.7
2014-Jul-17 07:34N 36°14' E 014°27'1515.2
2014-Jul-17 06:34N 36°09' E 014°45'1515.1
2014-Jul-17 05:34N 36°05' E 015°03'3014.8
2014-Jul-17 03:33N 35°56' E 015°38'  
Track history (hours):
 
Tides and Currents Weather Stations Pressure Air Temp Water Temp Dewpoint Dewpoint Depression Visibility Wind Speed Wind Dir Waves Ship Positions

Zim Panama

Last reported at 2014-Jul-23 01:24 UTC. Time now 2014-Jul-23 20:10 UTC.
Position N 38°44' W 011°52'.

Length 294.12 m; beam 32.2 m; draft 9.45 m.

Type: Ship (hazmat cat C). MMSI: 235474000.

Date/timePositionNaut miles runAvg speedWind from/ knotsBaromVisibWave heightAir tempDewpointWater temp
2014-Jul-23 01:24N 38°44' W 011°52'3818.5
2014-Jul-22 23:20N 38°31' W 011°06'1518.8
2014-Jul-22 22:32N 38°27' W 010°48'1918.6
2014-Jul-22 21:29N 38°21' W 010°24'1718.1
2014-Jul-22 20:33N 38°15' W 010°04'1817.9
2014-Jul-22 19:33N 38°09' W 009°42'1818.0
2014-Jul-22 18:33N 38°03' W 009°21'1818.0
2014-Jul-22 17:33N 37°56' W 008°60'7 7.1
2014-Jul-22 16:33N 37°56' W 008°51'0 0.0
2014-Jul-22 15:33N 37°56' W 008°51'0 0.0
2014-Jul-22 14:33N 37°56' W 008°51'0 0.0
2014-Jul-22 13:33N 37°56' W 008°51'0 0.0
2014-Jul-22 12:33N 37°56' W 008°51'0 0.0
2014-Jul-22 11:33N 37°56' W 008°51'0 0.0
2014-Jul-22 10:33N 37°56' W 008°51'0 0.0
2014-Jul-22 09:33N 37°56' W 008°51'0 0.0
2014-Jul-22 08:33N 37°56' W 008°51'0 0.0
2014-Jul-22 07:33N 37°56' W 008°51'0 0.0
2014-Jul-22 06:33N 37°56' W 008°51'0 0.0
2014-Jul-22 05:33N 37°56' W 008°51'0 0.4
2014-Jul-22 04:33N 37°56' W 008°51'7 6.6
2014-Jul-22 03:33N 37°49' W 008°53'1616.2
2014-Jul-22 02:33N 37°34' W 009°01'2020.3
2014-Jul-22 01:33N 37°16' W 009°11'2019.5
2014-Jul-22 00:33N 36°58' W 009°20'2019.5
2014-Jul-21 23:33N 36°43' W 009°04'2120.7
2014-Jul-21 22:34N 36°37' W 008°39'2120.8
2014-Jul-21 21:34N 36°31' W 008°15'2520.9
2014-Jul-21 20:23N 36°22' W 007°46'221.1
2014-Jul-21 20:17N 36°22' W 007°44'1520.7
2014-Jul-21 19:34N 36°17' W 007°26'33419.4
2014-Jul-21 02:21N 37°31' W 000°39'1921.0
2014-Jul-21 01:28N 37°46' W 000°25'2121.4
2014-Jul-21 00:28N 38°04' W 000°10'5117.5
2014-Jul-20 21:33N 38°50' E 000°18'2120.6
2014-Jul-20 20:32N 39°07' E 000°02'2219.7
2014-Jul-20 19:25N 39°24' W 000°15'4 4.3
2014-Jul-20 18:31N 39°26' W 000°19'0 0.0
2014-Jul-20 17:31N 39°26' W 000°19'0 0.0
2014-Jul-20 16:31N 39°26' W 000°19'0 0.0
2014-Jul-20 15:25N 39°26' W 000°19'0 0.0
2014-Jul-20 14:31N 39°26' W 000°19'0 0.0
2014-Jul-20 13:25N 39°26' W 000°19'0 0.0
2014-Jul-20 12:31N 39°26' W 000°19'0 0.0
2014-Jul-20 11:34N 39°26' W 000°19'0 0.0
2014-Jul-20 10:33N 39°26' W 000°19'0 0.0
2014-Jul-20 09:33N 39°26' W 000°19'0 0.0
2014-Jul-20 08:33N 39°26' W 000°19'0 0.0
2014-Jul-20 07:33N 39°26' W 000°19'0 0.0
2014-Jul-20 06:33N 39°26' W 000°19'0 0.3
2014-Jul-20 05:31N 39°26' W 000°20'0 0.0
2014-Jul-20 04:31N 39°26' W 000°20'0 0.0
2014-Jul-20 03:25N 39°26' W 000°20'0 0.0
2014-Jul-20 02:31N 39°26' W 000°20'0 0.0
2014-Jul-20 01:31N 39°26' W 000°20'0 0.0
2014-Jul-20 00:25N 39°26' W 000°20'0 0.0
2014-Jul-19 22:07N 39°26' W 000°20'0 0.0
2014-Jul-19 21:31N 39°26' W 000°20'0 0.0
2014-Jul-19 20:31N 39°26' W 000°20'0 0.0
2014-Jul-19 19:22N 39°26' W 000°20'0 0.0
2014-Jul-19 18:25N 39°26' W 000°20'0 0.0
2014-Jul-19 17:31N 39°26' W 000°20'0 0.0
2014-Jul-19 16:31N 39°26' W 000°20'0 0.0
2014-Jul-19 15:31N 39°26' W 000°20'0 0.0
2014-Jul-19 14:31N 39°26' W 000°20'0 0.0
2014-Jul-19 13:31N 39°26' W 000°20'0 0.0
2014-Jul-19 12:31N 39°26' W 000°20'0 0.0
2014-Jul-19 11:31N 39°26' W 000°20'2 1.7
2014-Jul-19 10:33N 39°25' W 000°18'8 6.6
2014-Jul-19 09:19N 39°25' W 000°07'1012.5
2014-Jul-19 08:33N 39°25' E 000°05'4713.7
2014-Jul-19 05:09N 39°21' E 001°06'1014.0
2014-Jul-19 04:26N 39°21' E 001°19'1314.3
2014-Jul-19 03:33N 39°18' E 001°35'1414.5
2014-Jul-19 02:33N 39°13' E 001°52'1414.3
2014-Jul-19 01:33N 39°09' E 002°10'1414.1
2014-Jul-19 00:33N 39°02' E 002°25'1414.4
2014-Jul-18 23:33N 38°58' E 002°43'1514.5
2014-Jul-18 22:33N 38°54' E 003°01'1414.4
2014-Jul-18 21:33N 38°51' E 003°19'1414.5
2014-Jul-18 20:33N 38°48' E 003°37'1514.4
2014-Jul-18 19:33N 38°45' E 003°56'1414.4
2014-Jul-18 18:33N 38°42' E 004°13'1414.4
2014-Jul-18 17:33N 38°38' E 004°31'1514.5
2014-Jul-18 16:33N 38°35' E 004°49'1414.4
2014-Jul-18 15:33N 38°32' E 005°07'1514.5
2014-Jul-18 14:33N 38°29' E 005°26'1514.6
2014-Jul-18 13:33N 38°26' E 005°44'1514.8
2014-Jul-18 12:33N 38°22' E 006°02'7915.1
2014-Jul-18 07:20N 38°05' E 007°40'17514.5
2014-Jul-17 19:15N 37°26' E 011°16'10414.5
2014-Jul-17 12:04N 36°38' E 013°12'714.2
2014-Jul-17 11:34N 36°35' E 013°20'2014.2
2014-Jul-17 10:08N 36°26' E 013°43'814.5
2014-Jul-17 09:34N 36°23' E 013°53'1414.4
2014-Jul-17 08:34N 36°18' E 014°09'1514.7
2014-Jul-17 07:34N 36°14' E 014°27'1515.2
2014-Jul-17 06:34N 36°09' E 014°45'1515.1
2014-Jul-17 05:34N 36°05' E 015°03'3014.8
2014-Jul-17 03:33N 35°56' E 015°38'  

Dump ship's entire track history